createdAt,value
2018-12-19T00:00:27.434Z,12.23
2018-12-19T00:03:02.921Z,12.43
2018-12-19T00:05:38.602Z,12.33
2018-12-19T00:08:14.010Z,12.47
2018-12-19T00:10:47.521Z,12.53
2018-12-19T00:13:20.901Z,12.17
2018-12-19T00:15:54.373Z,12.53
2018-12-19T00:18:27.897Z,11.77
2018-12-19T00:21:01.496Z,13.40
2018-12-19T00:23:34.995Z,12.23
2018-12-19T00:26:08.697Z,12.70
2018-12-19T00:28:44.245Z,11.37
2018-12-19T00:31:19.498Z,13.13
2018-12-19T00:33:54.997Z,12.37
2018-12-19T00:36:28.456Z,12.20
2018-12-19T00:39:09.522Z,13.03
2018-12-19T00:41:42.061Z,13.77
2018-12-19T00:44:16.661Z,13.10
2018-12-19T00:46:50.134Z,12.78
2018-12-19T00:49:23.591Z,12.13
2018-12-19T00:51:57.277Z,13.23
2018-12-19T00:54:30.830Z,12.60
2018-12-19T00:57:04.309Z,12.70
2018-12-19T00:59:37.906Z,12.13
2018-12-19T01:02:11.629Z,13.27
2018-12-19T01:04:48.228Z,12.50
2018-12-19T01:07:21.711Z,13.17
2018-12-19T01:09:55.313Z,14.67
2018-12-19T01:12:28.815Z,12.80
2018-12-19T01:15:02.362Z,13.70
2018-12-19T01:17:35.741Z,13.30
2018-12-19T01:20:09.357Z,13.70
2018-12-19T01:22:42.858Z,12.90
2018-12-19T01:25:16.411Z,13.30
2018-12-19T01:27:49.885Z,13.93
2018-12-19T01:30:23.351Z,14.07
2018-12-19T01:32:56.784Z,14.90
2018-12-19T01:35:30.484Z,13.47
2018-12-19T01:38:03.906Z,13.77
2018-12-19T01:40:37.239Z,13.50
2018-12-19T01:43:10.774Z,13.57
2018-12-19T01:45:44.337Z,13.27
2018-12-19T01:48:17.637Z,14.40
2018-12-19T01:50:51.066Z,15.40
2018-12-19T01:53:24.623Z,13.53
2018-12-19T01:55:58.367Z,14.27
2018-12-19T01:58:31.814Z,14.67
2018-12-19T02:01:05.420Z,15.30
2018-12-19T02:03:38.741Z,14.57
2018-12-19T02:06:12.189Z,15.13
2018-12-19T02:08:45.853Z,15.70
2018-12-19T02:11:20.567Z,15.27
2018-12-19T02:13:53.978Z,14.00
2018-12-19T02:16:27.655Z,14.67
2018-12-19T02:19:00.961Z,14.57
2018-12-19T02:21:34.370Z,15.60
2018-12-19T02:24:07.813Z,14.77
2018-12-19T02:26:41.747Z,14.17
2018-12-19T02:29:15.205Z,15.23
2018-12-19T02:31:48.712Z,15.10
2018-12-19T02:34:22.155Z,15.47
2018-12-19T02:36:55.608Z,15.87
2018-12-19T02:39:35.962Z,14.10
2018-12-19T02:42:04.202Z,13.67
2018-12-19T02:44:37.565Z,14.97
2018-12-19T02:47:11.002Z,14.20
2018-12-19T02:49:44.456Z,15.40
2018-12-19T02:52:17.734Z,15.27
2018-12-19T02:54:51.081Z,14.43
2018-12-19T02:57:24.688Z,14.97
2018-12-19T02:59:58.157Z,14.50
2018-12-19T03:02:31.667Z,15.13
2018-12-19T03:05:05.282Z,14.17
2018-12-19T03:07:38.702Z,14.10
2018-12-19T03:10:12.202Z,14.23
2018-12-19T03:12:45.572Z,14.40
2018-12-19T03:15:19.003Z,15.40
2018-12-19T03:17:52.688Z,14.07
2018-12-19T03:20:26.308Z,14.73
2018-12-19T03:23:00.004Z,15.23
2018-12-19T03:25:33.428Z,13.47
2018-12-19T03:28:07.044Z,14.77
2018-12-19T03:30:40.508Z,14.37
2018-12-19T03:33:15.510Z,13.43
2018-12-19T03:35:49.047Z,14.80
2018-12-19T03:38:23.359Z,14.40
2018-12-19T03:40:56.838Z,15.40
2018-12-19T03:43:30.590Z,14.53
2018-12-19T03:46:04.132Z,13.93
2018-12-19T03:48:43.385Z,14.27
2018-12-19T03:51:16.986Z,13.63
2018-12-19T03:53:50.560Z,14.77
2018-12-19T03:56:23.860Z,13.57
2018-12-19T03:58:57.491Z,14.60
2018-12-19T04:01:30.902Z,14.60
2018-12-19T04:04:04.394Z,14.47
2018-12-19T04:06:38.067Z,15.60
2018-12-19T04:09:11.359Z,14.07
2018-12-19T04:11:44.871Z,14.50
2018-12-19T04:14:18.297Z,14.40
2018-12-19T04:16:51.765Z,13.63
2018-12-19T04:19:25.163Z,14.30
2018-12-19T04:22:00.662Z,15.33
2018-12-19T04:24:34.338Z,14.67
2018-12-19T04:27:07.703Z,13.93
2018-12-19T04:29:41.430Z,13.27
2018-12-19T04:32:14.925Z,14.60
2018-12-19T04:34:48.269Z,14.80
2018-12-19T04:37:21.549Z,14.27
2018-12-19T04:39:55.100Z,14.70
2018-12-19T04:42:28.691Z,13.87
2018-12-19T04:45:02.234Z,13.83
2018-12-19T04:47:35.807Z,13.93
2018-12-19T04:50:09.717Z,13.67
2018-12-19T04:52:43.234Z,14.00
2018-12-19T04:55:16.817Z,12.20
2018-12-19T04:57:50.283Z,12.97
2018-12-19T05:00:23.565Z,14.27
2018-12-19T05:02:57.023Z,14.43
2018-12-19T05:05:30.453Z,14.57
2018-12-19T05:08:04.054Z,13.83
2018-12-19T05:10:37.480Z,14.07
2018-12-19T05:13:10.996Z,14.03
2018-12-19T05:15:44.518Z,14.03
2018-12-19T05:18:17.936Z,13.13
2018-12-19T05:20:52.126Z,13.23
2018-12-19T05:23:25.745Z,14.37
2018-12-19T05:25:59.074Z,14.03
2018-12-19T05:28:32.517Z,12.70
2018-12-19T05:31:06.054Z,13.63
2018-12-19T05:33:39.393Z,13.00
2018-12-19T05:36:12.976Z,13.50
2018-12-19T05:38:46.541Z,14.23
2018-12-19T05:41:19.863Z,12.88
2018-12-19T05:43:53.237Z,13.23
2018-12-19T05:46:27.740Z,12.27
2018-12-19T05:49:01.286Z,12.07
2018-12-19T05:51:34.869Z,13.07
2018-12-19T05:54:08.362Z,12.90
2018-12-19T05:56:41.682Z,11.90
2018-12-19T05:59:15.253Z,12.20
2018-12-19T06:01:48.707Z,13.27
2018-12-19T06:04:24.194Z,13.80
2018-12-19T06:06:57.506Z,12.87
2018-12-19T06:09:30.756Z,12.77
2018-12-19T06:12:04.204Z,12.43
2018-12-19T06:14:37.793Z,12.67
2018-12-19T06:17:11.439Z,12.10
2018-12-19T06:19:44.924Z,12.43
2018-12-19T06:22:19.715Z,12.50
2018-12-19T06:24:53.367Z,12.27
2018-12-19T06:27:26.721Z,12.40
2018-12-19T06:30:00.234Z,12.43
2018-12-19T06:32:33.652Z,12.33
2018-12-19T06:35:07.078Z,12.50
2018-12-19T06:37:40.730Z,11.53
2018-12-19T06:40:13.985Z,12.30
2018-12-19T06:42:47.435Z,13.00
2018-12-19T06:45:20.869Z,11.43
2018-12-19T06:47:54.314Z,11.23
2018-12-19T06:50:29.030Z,11.23
2018-12-19T06:53:02.370Z,11.17
2018-12-19T06:55:35.742Z,11.10
2018-12-19T06:58:09.180Z,11.93
2018-12-19T07:00:42.896Z,10.40
2018-12-19T07:03:16.351Z,11.50
2018-12-19T07:05:49.974Z,10.57
2018-12-19T07:08:23.335Z,11.63
2018-12-19T07:10:56.855Z,10.97
2018-12-19T07:13:30.345Z,12.43
2018-12-19T07:16:04.036Z,11.40
2018-12-19T07:18:37.473Z,10.93
2018-12-19T07:21:11.133Z,12.33
2018-12-19T07:23:44.769Z,12.43
2018-12-19T07:26:18.430Z,11.60
2018-12-19T07:28:52.036Z,11.00
2018-12-19T07:31:25.393Z,11.30
2018-12-19T07:33:58.875Z,10.60
2018-12-19T07:36:32.359Z,11.47
2018-12-19T07:39:07.396Z,11.63
2018-12-19T07:41:41.026Z,12.40
2018-12-19T07:44:14.816Z,10.70
2018-12-19T07:46:48.516Z,11.73
2018-12-19T07:49:21.877Z,11.73
2018-12-19T07:51:55.478Z,12.20
2018-12-19T07:54:29.112Z,12.53
2018-12-19T07:57:02.511Z,11.00
2018-12-19T07:59:35.860Z,11.90
2018-12-19T08:02:09.574Z,13.03
2018-12-19T08:04:43.217Z,11.73
2018-12-19T08:07:16.893Z,11.33
2018-12-19T08:09:50.226Z,11.60
2018-12-19T08:12:23.597Z,11.50
2018-12-19T08:15:02.297Z,10.70
2018-12-19T08:17:35.723Z,10.90
2018-12-19T08:20:10.419Z,11.60
2018-12-19T08:22:43.879Z,12.40
2018-12-19T08:25:17.457Z,12.03
2018-12-19T08:27:51.977Z,11.87
2018-12-19T08:30:25.663Z,11.60
2018-12-19T08:32:59.480Z,12.50
2018-12-19T08:35:32.932Z,11.50
2018-12-19T08:38:06.407Z,12.23
2018-12-19T08:40:39.972Z,11.53
2018-12-19T08:43:13.724Z,11.63
2018-12-19T08:45:48.006Z,11.67
2018-12-19T08:48:21.460Z,11.50
2018-12-19T08:50:55.126Z,11.63
2018-12-19T08:53:28.767Z,11.33
2018-12-19T08:56:02.641Z,12.50
2018-12-19T08:58:36.132Z,12.03
2018-12-19T09:01:09.598Z,11.57
2018-12-19T09:03:43.206Z,11.75
2018-12-19T09:06:16.662Z,11.27
2018-12-19T09:08:49.977Z,12.93
2018-12-19T09:11:23.634Z,12.37
2018-12-19T09:13:57.027Z,11.80
2018-12-19T09:16:30.395Z,12.07
2018-12-19T09:19:10.859Z,12.37
2018-12-19T09:21:44.586Z,12.63
2018-12-19T09:24:18.462Z,13.27
2018-12-19T09:26:52.777Z,11.83
2018-12-19T09:29:26.341Z,12.00
2018-12-19T09:31:59.797Z,13.13
2018-12-19T09:34:33.135Z,23.43
2018-12-19T09:37:06.668Z,14.60
2018-12-19T09:39:40.365Z,13.50
2018-12-19T09:42:13.762Z,11.70
2018-12-19T09:44:47.067Z,11.60
2018-12-19T09:47:20.578Z,11.57
2018-12-19T09:49:54.126Z,11.80
2018-12-19T09:52:27.654Z,11.50
2018-12-19T09:55:01.094Z,11.25
2018-12-19T09:57:34.778Z,11.00
2018-12-19T10:00:14.375Z,11.77
2018-12-19T10:02:49.349Z,10.98
2018-12-19T10:05:23.345Z,9.73
2018-12-19T10:07:57.722Z,11.00
2018-12-19T10:10:31.079Z,12.13
2018-12-19T10:13:04.782Z,10.93
2018-12-19T10:15:38.420Z,10.80
2018-12-19T10:18:11.783Z,10.60
2018-12-19T10:20:45.264Z,11.07
2018-12-19T10:23:18.920Z,10.50
2018-12-19T10:26:13.382Z,11.00
2018-12-19T10:28:46.942Z,12.33
2018-12-19T10:31:20.383Z,11.93
2018-12-19T10:33:54.052Z,12.20
2018-12-19T10:36:33.425Z,10.80
2018-12-19T10:39:15.861Z,12.23
2018-12-19T10:41:49.316Z,10.57
2018-12-19T10:44:23.127Z,10.00
2018-12-19T10:46:56.601Z,10.97
2018-12-19T10:49:30.052Z,10.73
2018-12-19T10:52:03.538Z,10.67
2018-12-19T10:54:37.290Z,9.80
2018-12-19T10:57:10.830Z,10.10
2018-12-19T10:59:44.275Z,10.00
2018-12-19T11:02:17.952Z,10.37
2018-12-19T11:04:51.449Z,9.65
2018-12-19T11:07:25.242Z,9.80
2018-12-19T11:09:58.785Z,9.93
2018-12-19T11:12:32.150Z,10.70
2018-12-19T11:15:09.311Z,10.33
2018-12-19T11:17:42.621Z,10.03
2018-12-19T11:20:16.207Z,9.97
2018-12-19T11:22:49.478Z,10.10
2018-12-19T11:25:23.069Z,10.70
2018-12-19T11:27:56.575Z,11.47
2018-12-19T11:30:30.013Z,10.80
2018-12-19T11:33:03.632Z,11.12
2018-12-19T11:35:37.004Z,11.50
2018-12-19T11:38:10.810Z,10.03
2018-12-19T11:40:44.379Z,10.67
2018-12-19T11:43:17.908Z,11.83
2018-12-19T11:45:51.411Z,10.73
2018-12-19T11:48:24.922Z,11.33
2018-12-19T11:50:58.445Z,10.30
2018-12-19T11:53:31.930Z,10.65
2018-12-19T11:56:05.453Z,9.80
2018-12-19T11:58:39.135Z,10.98
2018-12-19T12:01:12.954Z,11.03
2018-12-19T12:03:46.514Z,10.75
2018-12-19T12:06:21.968Z,11.13
2018-12-19T12:08:55.405Z,10.68
2018-12-19T12:11:35.990Z,10.80
2018-12-19T12:14:09.698Z,11.50
2018-12-19T12:16:43.310Z,11.78
2018-12-19T12:19:16.737Z,12.58
2018-12-19T12:21:50.185Z,12.82
2018-12-19T12:24:23.442Z,12.73
2018-12-19T12:26:56.757Z,12.63
2018-12-19T12:29:30.093Z,13.65
2018-12-19T12:32:03.573Z,12.40
2018-12-19T12:34:36.911Z,13.37
2018-12-19T12:37:10.698Z,13.15
2018-12-19T12:39:44.207Z,13.43
2018-12-19T12:42:17.538Z,12.60
2018-12-19T12:44:51.110Z,13.15
2018-12-19T12:47:24.736Z,13.10
2018-12-19T12:49:58.277Z,12.73
2018-12-19T12:52:31.597Z,12.30
2018-12-19T12:55:05.210Z,13.30
2018-12-19T12:57:38.609Z,13.97
2018-12-19T13:00:12.218Z,14.87
2018-12-19T13:02:45.753Z,13.62
2018-12-19T13:05:21.367Z,13.50
2018-12-19T13:07:54.918Z,13.47
2018-12-19T13:10:28.313Z,13.00
2018-12-19T13:13:01.854Z,14.73
2018-12-19T13:15:40.570Z,14.20
2018-12-19T13:18:14.760Z,13.10
2018-12-19T13:20:48.358Z,14.60
2018-12-19T13:23:22.620Z,13.05
2018-12-19T13:25:56.076Z,13.15
2018-12-19T13:28:29.629Z,13.30
2018-12-19T13:31:03.053Z,13.97
2018-12-19T13:33:36.558Z,14.03
2018-12-19T13:36:10.119Z,14.85
2018-12-19T13:38:44.936Z,14.15
2018-12-19T13:41:18.321Z,13.28
2018-12-19T13:43:51.787Z,14.33
2018-12-19T13:46:25.254Z,13.70
2018-12-19T13:48:58.820Z,14.60
2018-12-19T13:51:32.446Z,14.20
2018-12-19T13:54:05.953Z,14.47
2018-12-19T13:56:39.293Z,14.73
2018-12-19T13:59:12.786Z,14.98
2018-12-19T14:01:46.501Z,14.93
2018-12-19T14:04:20.066Z,15.23
2018-12-19T14:06:53.478Z,15.20
2018-12-19T14:09:26.818Z,14.95
2018-12-19T14:12:00.222Z,14.30
2018-12-19T14:14:33.631Z,15.30
2018-12-19T14:17:06.969Z,15.35
2018-12-19T14:19:40.343Z,14.98
2018-12-19T14:22:13.876Z,16.80
2018-12-19T14:24:47.541Z,16.00
2018-12-19T14:27:21.052Z,15.28
2018-12-19T14:29:54.604Z,17.45
2018-12-19T14:32:28.310Z,14.87
2018-12-19T14:35:01.891Z,16.07
2018-12-19T14:37:35.421Z,15.85
2018-12-19T14:40:08.981Z,14.85
2018-12-19T14:42:43.569Z,15.75
2018-12-19T14:45:17.194Z,16.45
2018-12-19T14:47:50.759Z,17.37
2018-12-19T14:50:24.282Z,16.42
2018-12-19T14:52:57.769Z,16.20
2018-12-19T14:55:31.171Z,16.62
2018-12-19T14:58:04.819Z,15.07
2018-12-19T15:00:38.362Z,16.65
2018-12-19T15:03:11.705Z,15.70
2018-12-19T15:05:45.102Z,15.10
2018-12-19T15:08:18.914Z,16.48
2018-12-19T15:10:52.443Z,14.75
2018-12-19T15:13:26.163Z,16.25
2018-12-19T15:16:00.882Z,16.55
2018-12-19T15:18:34.547Z,15.60
2018-12-19T15:21:08.279Z,15.85
2018-12-19T15:23:41.622Z,15.03
2018-12-19T15:26:15.037Z,15.70
2018-12-19T15:28:48.745Z,15.20
2018-12-19T15:31:22.093Z,15.60
2018-12-19T15:33:55.505Z,14.98
2018-12-19T15:36:29.193Z,15.95
2018-12-19T15:39:04.463Z,16.48
2018-12-19T15:41:39.077Z,16.02
2018-12-19T15:44:12.563Z,16.70
2018-12-19T15:46:46.008Z,15.75
2018-12-19T15:49:19.697Z,17.15
2018-12-19T15:51:53.153Z,15.88
2018-12-19T15:54:26.734Z,16.87
2018-12-19T15:57:00.277Z,17.95
2018-12-19T15:59:33.783Z,15.85
2018-12-19T16:02:07.291Z,15.50
2018-12-19T16:04:40.828Z,15.03
2018-12-19T16:07:15.442Z,15.50
2018-12-19T16:09:49.044Z,15.70
2018-12-19T16:12:22.593Z,14.70
2018-12-19T16:14:55.874Z,14.63
2018-12-19T16:17:29.362Z,16.50
2018-12-19T16:20:03.207Z,14.10
2018-12-19T16:22:36.655Z,15.78
2018-12-19T16:25:10.052Z,15.78
2018-12-19T16:27:43.448Z,15.43
2018-12-19T16:30:16.773Z,15.68
2018-12-19T16:32:50.274Z,15.35
2018-12-19T16:35:25.074Z,15.72
2018-12-19T16:37:58.682Z,15.32
2018-12-19T16:40:32.288Z,15.35
2018-12-19T16:43:05.900Z,15.48
2018-12-19T16:45:39.462Z,14.80
2018-12-19T16:48:13.422Z,14.60
2018-12-19T16:50:47.270Z,14.13
2018-12-19T16:53:20.788Z,15.10
2018-12-19T16:55:54.166Z,14.70
2018-12-19T16:58:27.582Z,15.88
2018-12-19T17:01:01.069Z,15.60
2018-12-19T17:03:34.942Z,15.50
2018-12-19T17:06:08.689Z,16.73
2018-12-19T17:08:42.410Z,15.18
2018-12-19T17:11:15.921Z,14.33
2018-12-19T17:13:49.447Z,14.30
2018-12-19T17:16:22.797Z,14.03
2018-12-19T17:18:56.634Z,14.58
2018-12-19T17:21:30.886Z,13.80
2018-12-19T17:24:04.521Z,14.05
2018-12-19T17:26:37.949Z,14.33
2018-12-19T17:29:11.209Z,13.70
2018-12-19T17:31:44.557Z,14.13
2018-12-19T17:34:18.292Z,14.47
2018-12-19T17:36:51.723Z,14.20
2018-12-19T17:39:25.047Z,14.03
2018-12-19T17:42:01.022Z,15.23
2018-12-19T17:44:35.364Z,15.88
2018-12-19T17:47:08.854Z,16.15
2018-12-19T17:49:42.233Z,16.50
2018-12-19T17:52:15.798Z,15.65
2018-12-19T17:54:50.584Z,14.83
2018-12-19T17:57:24.022Z,14.93
2018-12-19T17:59:57.582Z,14.45
2018-12-19T18:02:31.089Z,14.90
2018-12-19T18:05:05.102Z,14.70
2018-12-19T18:07:38.769Z,14.78
2018-12-19T18:10:12.056Z,16.05
2018-12-19T18:12:45.478Z,16.17
2018-12-19T18:15:19.205Z,16.25
2018-12-19T18:17:52.680Z,15.68
2018-12-19T18:20:26.392Z,17.60
2018-12-19T18:22:59.905Z,16.07
2018-12-19T18:25:33.438Z,15.45
2018-12-19T18:28:06.859Z,16.25
2018-12-19T18:30:40.505Z,15.00
2018-12-19T18:33:14.172Z,15.53
2018-12-19T18:35:47.765Z,14.80
2018-12-19T18:38:22.521Z,14.47
2018-12-19T18:40:56.239Z,14.38
2018-12-19T18:43:29.846Z,15.43
2018-12-19T18:46:03.513Z,15.28
2018-12-19T18:48:36.994Z,14.40
2018-12-19T18:51:10.681Z,14.23
2018-12-19T18:53:44.228Z,15.37
2018-12-19T18:56:17.978Z,14.35
2018-12-19T18:58:51.545Z,14.85
2018-12-19T19:01:25.335Z,14.68
2018-12-19T19:03:58.956Z,14.23
2018-12-19T19:06:32.406Z,14.20
2018-12-19T19:09:06.105Z,15.43
2018-12-19T19:11:40.933Z,14.63
2018-12-19T19:14:14.777Z,16.95
2018-12-19T19:16:48.348Z,19.40
2018-12-19T19:19:21.940Z,21.45
2018-12-19T19:21:55.239Z,18.70
2018-12-19T19:24:28.846Z,17.00
2018-12-19T19:27:02.118Z,16.97
2018-12-19T19:29:35.609Z,16.27
2018-12-19T19:32:09.101Z,16.02
2018-12-19T19:34:42.388Z,17.98
2018-12-19T19:37:16.052Z,18.70
2018-12-19T19:39:49.586Z,18.30
2018-12-19T19:42:23.081Z,16.10
2018-12-19T19:44:56.627Z,16.57
2018-12-19T19:47:30.632Z,17.27
2018-12-19T19:50:04.348Z,17.13
2018-12-19T19:52:37.673Z,15.45
2018-12-19T19:55:11.390Z,15.37
2018-12-19T19:57:44.778Z,16.70
2018-12-19T20:00:23.034Z,15.58
2018-12-19T20:02:57.571Z,16.45
2018-12-19T20:05:31.267Z,15.63
2018-12-19T20:08:04.838Z,15.88
2018-12-19T20:10:38.276Z,15.72
2018-12-19T20:13:11.839Z,15.88
2018-12-19T20:15:45.582Z,16.30
2018-12-19T20:18:19.258Z,15.60
2018-12-19T20:20:52.558Z,17.13
2018-12-19T20:23:26.230Z,16.50
2018-12-19T20:25:59.821Z,17.02
2018-12-19T20:28:33.337Z,16.32
2018-12-19T20:31:06.884Z,15.23
2018-12-19T20:33:40.229Z,16.17
2018-12-19T20:36:13.542Z,15.85
2018-12-19T20:38:47.011Z,15.70
2018-12-19T20:41:20.538Z,15.32
2018-12-19T20:43:54.035Z,15.20
2018-12-19T20:46:27.501Z,15.58
2018-12-19T20:49:01.139Z,15.78
2018-12-19T20:51:34.483Z,13.97
2018-12-19T20:54:08.066Z,14.90
2018-12-19T20:56:41.613Z,15.03
2018-12-19T20:59:15.150Z,13.93
2018-12-19T21:01:48.555Z,14.58
2018-12-19T21:04:22.788Z,15.00
2018-12-19T21:06:56.339Z,14.43
2018-12-19T21:09:29.719Z,15.03
2018-12-19T21:12:03.391Z,14.03
2018-12-19T21:14:36.936Z,15.23
2018-12-19T21:17:16.987Z,14.75
2018-12-19T21:19:50.499Z,14.20
2018-12-19T21:22:24.147Z,14.03
2018-12-19T21:24:57.614Z,14.25
2018-12-19T21:27:38.173Z,15.60
2018-12-19T21:30:11.666Z,15.38
2018-12-19T21:32:45.167Z,15.20
2018-12-19T21:35:18.941Z,15.00
2018-12-19T21:37:52.309Z,14.43
2018-12-19T21:40:26.090Z,13.90
2018-12-19T21:42:59.694Z,14.73
2018-12-19T21:45:33.333Z,14.87
2018-12-19T21:48:07.005Z,14.47
2018-12-19T21:50:40.583Z,15.23
2018-12-19T21:53:14.196Z,14.15
2018-12-19T21:55:47.646Z,13.65
2018-12-19T21:58:21.074Z,14.05
2018-12-19T22:00:54.696Z,13.20
2018-12-19T22:03:28.167Z,14.13
2018-12-19T22:06:01.859Z,15.15
2018-12-19T22:08:35.329Z,13.93
2018-12-19T22:11:09.092Z,13.80
2018-12-19T22:13:42.709Z,14.20
2018-12-19T22:16:22.001Z,13.83
2018-12-19T22:18:57.574Z,14.25
2018-12-19T22:21:31.222Z,14.00
2018-12-19T22:24:04.837Z,14.75
2018-12-19T22:26:39.240Z,15.70
2018-12-19T22:29:12.900Z,14.03
2018-12-19T22:31:46.525Z,15.18
2018-12-19T22:34:19.989Z,14.35
2018-12-19T22:36:53.580Z,15.90
2018-12-19T22:39:27.214Z,13.62
2018-12-19T22:42:00.613Z,13.95
2018-12-19T22:44:33.973Z,13.58
2018-12-19T22:47:07.742Z,13.65
2018-12-19T22:49:41.271Z,13.48
2018-12-19T22:52:14.886Z,14.25
2018-12-19T22:54:48.402Z,14.63
2018-12-19T22:57:22.233Z,13.65
2018-12-19T22:59:55.765Z,13.75
2018-12-19T23:02:35.165Z,14.38
2018-12-19T23:05:08.718Z,13.45
2018-12-19T23:07:42.235Z,13.85
2018-12-19T23:10:15.789Z,14.35
2018-12-19T23:12:49.367Z,14.95
2018-12-19T23:15:24.346Z,14.23
2018-12-19T23:18:10.169Z,15.08
2018-12-19T23:20:50.061Z,14.15
2018-12-19T23:23:29.780Z,14.65
2018-12-19T23:26:09.510Z,14.35
2018-12-19T23:28:45.226Z,13.68
2018-12-19T23:31:18.859Z,13.98
2018-12-19T23:33:52.289Z,13.43
2018-12-19T23:36:25.997Z,14.57
2018-12-19T23:38:59.461Z,14.07
2018-12-19T23:41:33.043Z,13.85
2018-12-19T23:44:06.914Z,14.23
2018-12-19T23:46:40.418Z,14.90
2018-12-19T23:49:13.997Z,13.18
2018-12-19T23:51:47.465Z,14.55
2018-12-19T23:54:21.028Z,14.25
2018-12-19T23:56:54.594Z,14.47
2018-12-19T23:59:28.189Z,14.50
